Terminal Aerodrome Forecast
Issued by NWS

Home | Current Version | Previous Version | Text Only | Print | Product List | Glossary On
Versions: 1 2 3 4 5 6 7 8 9 10 11 12 13 14 15 16 17 18
236
FTUS42 KJAX 221958 AAA
TAFVQQ
TAF AMD
KVQQ 221958Z 2220/2318 18010KT P6SM BKN040 BKN250
     FM230100 16007KT P6SM SCT020 OVC120
     FM230500 17006KT P6SM VCSH SCT015 BKN030 OVC100
     FM230600 17005KT 5SM -SHRA BR SCT010 OVC020 PROB30 2306/2310
      2SM TSRA BKN010CB
     FM231300 22008KT P6SM VCSH OVC010=

USA.gov is the U.S. government's official web portal to all federal, state and local government web resources and services.